createdAt,value
2022-11-11T00:01:35.377Z,4.60
2022-11-11T00:04:57.043Z,4.50
2022-11-11T00:08:18.625Z,4.40
2022-11-11T00:11:40.228Z,4.40
2022-11-11T00:15:01.836Z,4.40
2022-11-11T00:18:25.066Z,4.40
2022-11-11T00:21:46.934Z,4.30
2022-11-11T00:25:09.183Z,4.40
2022-11-11T00:28:30.872Z,4.40
2022-11-11T00:31:52.535Z,4.40
2022-11-11T00:35:15.656Z,4.40
2022-11-11T00:38:37.363Z,4.40
2022-11-11T00:41:59.043Z,4.30
2022-11-11T00:45:20.678Z,4.30
2022-11-11T00:48:42.333Z,4.20
2022-11-11T00:52:05.358Z,4.20
2022-11-11T00:55:26.952Z,4.20
2022-11-11T00:58:48.819Z,4.20
2022-11-11T01:02:10.442Z,4.10
2022-11-11T01:05:32.170Z,4.10
2022-11-11T01:08:55.216Z,4.00
2022-11-11T01:12:16.832Z,4.00
2022-11-11T01:15:38.696Z,4.00
2022-11-11T01:19:00.342Z,4.00
2022-11-11T01:22:22.044Z,3.90
2022-11-11T01:25:45.004Z,3.90
2022-11-11T01:29:06.686Z,3.90
2022-11-11T01:32:28.328Z,3.90
2022-11-11T01:35:50.034Z,3.90
2022-11-11T01:39:11.731Z,3.90
2022-11-11T01:42:46.807Z,3.90
2022-11-11T01:46:16.072Z,3.90
2022-11-11T01:49:41.403Z,3.90
2022-11-11T01:53:03.147Z,3.90
2022-11-11T01:56:25.142Z,3.80
2022-11-11T01:59:49.496Z,3.80
2022-11-11T02:03:11.581Z,3.80
2022-11-11T02:06:33.466Z,3.70
2022-11-11T02:09:55.800Z,3.70
2022-11-11T02:13:17.420Z,3.70
2022-11-11T02:16:40.543Z,3.60
2022-11-11T02:20:03.502Z,3.60
2022-11-11T02:23:28.445Z,3.60
2022-11-11T02:26:58.101Z,3.50
2022-11-11T02:30:20.991Z,3.50
2022-11-11T02:33:42.779Z,3.50
2022-11-11T02:37:06.461Z,3.50
2022-11-11T02:40:30.749Z,3.50
2022-11-11T02:43:53.759Z,3.50
2022-11-11T02:47:15.427Z,3.50
2022-11-11T02:50:37.312Z,3.50
2022-11-11T02:53:59.274Z,3.50
2022-11-11T02:57:21.223Z,3.40
2022-11-11T03:00:44.410Z,3.40
2022-11-11T03:04:06.427Z,3.30
2022-11-11T03:07:28.136Z,3.30
2022-11-11T03:10:50.033Z,3.30
2022-11-11T03:14:11.703Z,3.20
2022-11-11T03:17:34.662Z,3.10
2022-11-11T03:20:56.261Z,3.10
2022-11-11T03:24:17.838Z,3.10
2022-11-11T03:27:40.947Z,3.10
2022-11-11T03:31:04.461Z,3.10
2022-11-11T03:34:27.596Z,3.10
2022-11-11T03:37:49.168Z,3.10
2022-11-11T03:41:10.813Z,3.00
2022-11-11T03:44:32.393Z,3.00
2022-11-11T03:47:54.003Z,3.00
2022-11-11T03:51:17.020Z,3.10
2022-11-11T03:54:38.659Z,3.10
2022-11-11T03:58:00.295Z,3.10
2022-11-11T04:01:21.947Z,3.00
2022-11-11T04:04:43.614Z,3.10
2022-11-11T04:08:08.932Z,3.10
2022-11-11T04:11:31.422Z,3.10
2022-11-11T04:14:53.000Z,3.00
2022-11-11T04:18:14.599Z,3.00
2022-11-11T04:21:36.249Z,2.90
2022-11-11T04:24:59.177Z,2.80
2022-11-11T04:28:20.790Z,2.70
2022-11-11T04:31:42.422Z,2.70
2022-11-11T04:35:04.799Z,2.70
2022-11-11T04:38:26.380Z,2.70
2022-11-11T04:45:31.036Z,2.70
2022-11-11T04:48:53.119Z,2.70
2022-11-11T04:52:14.693Z,2.70
2022-11-11T04:55:36.401Z,2.60
2022-11-11T04:58:59.328Z,2.60
2022-11-11T05:02:20.929Z,2.60
2022-11-11T05:05:43.018Z,2.60
2022-11-11T05:09:04.628Z,2.70
2022-11-11T05:12:26.256Z,2.70
2022-11-11T05:15:49.498Z,2.70
2022-11-11T05:19:11.595Z,2.70
2022-11-11T05:22:34.395Z,2.70
2022-11-11T05:25:55.976Z,2.60
2022-11-11T05:29:17.550Z,2.50
2022-11-11T05:32:40.901Z,2.50
2022-11-11T05:36:02.670Z,2.50
2022-11-11T05:39:24.247Z,2.50
2022-11-11T05:42:50.800Z,2.40
2022-11-11T05:46:15.811Z,2.40
2022-11-11T05:49:38.849Z,2.30
2022-11-11T05:53:00.464Z,2.30
2022-11-11T05:56:22.062Z,2.30
2022-11-11T05:59:43.645Z,2.30
2022-11-11T06:03:05.700Z,2.40
2022-11-11T06:06:28.841Z,2.40
2022-11-11T06:09:50.441Z,2.40
2022-11-11T06:13:12.033Z,2.40
2022-11-11T06:16:33.660Z,2.40
2022-11-11T06:19:55.338Z,2.40
2022-11-11T06:23:18.340Z,2.40
2022-11-11T06:26:39.949Z,2.30
2022-11-11T06:30:21.225Z,2.30
2022-11-11T06:33:43.180Z,2.20
2022-11-11T06:37:04.778Z,2.20
2022-11-11T06:40:27.783Z,2.20
2022-11-11T06:43:49.700Z,2.20
2022-11-11T06:47:11.309Z,2.30
2022-11-11T06:50:33.204Z,2.40
2022-11-11T06:53:54.817Z,2.40
2022-11-11T06:57:17.807Z,2.40
2022-11-11T07:00:39.941Z,2.40
2022-11-11T07:04:01.585Z,2.50
2022-11-11T07:07:23.211Z,2.60
2022-11-11T07:10:45.629Z,2.60
2022-11-11T07:14:08.582Z,2.80
2022-11-11T07:17:30.173Z,2.90
2022-11-11T07:20:51.807Z,3.10
2022-11-11T07:24:13.405Z,3.20
2022-11-11T07:27:36.593Z,3.30
2022-11-11T07:30:59.560Z,3.40
2022-11-11T07:34:21.175Z,3.60
2022-11-11T07:37:42.784Z,3.80
2022-11-11T07:41:04.519Z,4.10
2022-11-11T07:44:26.110Z,4.30
2022-11-11T07:47:49.103Z,4.40
2022-11-11T07:51:10.727Z,4.70
2022-11-11T07:54:32.317Z,4.80
2022-11-11T07:57:54.148Z,4.90
2022-11-11T08:01:15.852Z,5.00
2022-11-11T08:04:38.850Z,5.20
2022-11-11T08:08:02.709Z,5.50
2022-11-11T08:11:24.316Z,5.80
2022-11-11T08:14:45.922Z,6.10
2022-11-11T08:18:07.593Z,6.50
2022-11-11T08:21:30.502Z,7.00
2022-11-11T08:25:07.847Z,7.50
2022-11-11T08:28:30.751Z,8.00
2022-11-11T08:31:52.582Z,8.30
2022-11-11T08:35:14.189Z,8.50
2022-11-11T08:38:37.359Z,8.70
2022-11-11T08:41:58.946Z,8.90
2022-11-11T08:45:20.547Z,8.90
2022-11-11T08:48:42.131Z,9.10
2022-11-11T08:52:03.814Z,9.30
2022-11-11T08:55:26.768Z,9.40
2022-11-11T08:58:48.380Z,9.70
2022-11-11T09:02:11.011Z,9.70
2022-11-11T09:05:32.904Z,9.40
2022-11-11T09:08:54.525Z,9.10
2022-11-11T09:12:17.628Z,8.70
2022-11-11T09:15:39.247Z,8.30
2022-11-11T09:19:00.970Z,8.10
2022-11-11T09:22:22.641Z,8.00
2022-11-11T09:25:44.234Z,7.90
2022-11-11T09:29:07.278Z,7.80
2022-11-11T09:32:28.940Z,7.90
2022-11-11T09:35:50.561Z,8.10
2022-11-11T09:39:12.165Z,8.20
2022-11-11T09:42:37.673Z,8.30
2022-11-11T09:46:08.228Z,8.50
2022-11-11T09:49:41.528Z,8.70
2022-11-11T09:53:07.271Z,8.80
2022-11-11T09:56:31.772Z,9.00
2022-11-11T09:59:56.277Z,9.10
2022-11-11T10:03:20.593Z,9.30
2022-11-11T10:06:42.928Z,9.40
2022-11-11T10:10:08.396Z,9.60
2022-11-11T10:13:31.125Z,9.80
2022-11-11T10:16:54.957Z,10.00
2022-11-11T10:20:20.038Z,10.10
2022-11-11T10:23:43.129Z,10.20
2022-11-11T10:27:07.192Z,10.20
2022-11-11T10:30:31.862Z,10.30
2022-11-11T10:33:56.105Z,10.40
2022-11-11T10:37:22.469Z,10.50
2022-11-11T10:40:47.331Z,10.50
2022-11-11T10:44:19.153Z,10.50
2022-11-11T10:47:43.853Z,10.60
2022-11-11T10:51:06.364Z,10.50
2022-11-11T10:54:32.611Z,10.60
2022-11-11T10:57:57.386Z,10.70
2022-11-11T11:01:22.656Z,10.80
2022-11-11T11:04:46.051Z,10.90
2022-11-11T11:08:09.235Z,10.80
2022-11-11T11:11:41.432Z,10.90
2022-11-11T11:15:08.536Z,10.80
2022-11-11T11:18:30.165Z,10.90
2022-11-11T11:21:53.292Z,11.00
2022-11-11T11:25:15.484Z,11.00
2022-11-11T11:28:51.909Z,11.00
2022-11-11T11:32:14.953Z,11.00
2022-11-11T11:35:37.308Z,10.90
2022-11-11T11:38:58.929Z,10.90
2022-11-11T11:42:27.391Z,10.80
2022-11-11T11:45:55.075Z,10.80
2022-11-11T11:49:25.788Z,10.80
2022-11-11T11:52:53.535Z,10.80
2022-11-11T11:56:19.092Z,10.80
2022-11-11T11:59:43.259Z,10.90
2022-11-11T12:03:25.908Z,11.00
2022-11-11T12:06:53.686Z,11.10
2022-11-11T12:10:23.888Z,11.20
2022-11-11T12:13:51.957Z,11.30
2022-11-11T12:17:20.089Z,11.40
2022-11-11T12:20:46.100Z,11.50
2022-11-11T12:24:09.300Z,11.60
2022-11-11T12:27:34.469Z,11.70
2022-11-11T12:30:59.733Z,11.80
2022-11-11T12:34:40.709Z,11.90
2022-11-11T12:38:09.485Z,12.10
2022-11-11T12:41:38.856Z,12.10
2022-11-11T12:45:04.247Z,12.10
2022-11-11T12:48:36.399Z,12.20
2022-11-11T12:52:04.395Z,12.20
2022-11-11T12:55:31.660Z,12.20
2022-11-11T12:58:55.517Z,12.20
2022-11-11T13:02:25.958Z,12.20
2022-11-11T13:05:49.504Z,12.20
2022-11-11T13:09:29.477Z,12.30
2022-11-11T13:12:58.504Z,12.30
2022-11-11T13:16:22.169Z,12.40
2022-11-11T13:19:45.044Z,12.50
2022-11-11T13:23:08.388Z,12.50
2022-11-11T13:26:32.081Z,12.50
2022-11-11T13:30:05.468Z,12.50
2022-11-11T13:33:36.767Z,12.60
2022-11-11T13:36:58.489Z,12.70
2022-11-11T13:40:32.132Z,12.70
2022-11-11T13:43:54.824Z,12.70
2022-11-11T13:47:19.535Z,12.80
2022-11-11T13:50:41.157Z,12.80
2022-11-11T13:54:03.791Z,12.70
2022-11-11T13:57:26.409Z,12.80
2022-11-11T14:00:57.290Z,12.80
2022-11-11T14:04:20.271Z,12.90
2022-11-11T14:07:49.233Z,12.90
2022-11-11T14:11:26.413Z,12.80
2022-11-11T14:14:55.377Z,12.80
2022-11-11T14:18:33.941Z,12.70
2022-11-11T14:21:59.644Z,12.60
2022-11-11T14:25:26.608Z,12.50
2022-11-11T14:28:52.824Z,12.50
2022-11-11T14:32:24.994Z,12.40
2022-11-11T14:35:53.790Z,12.40
2022-11-11T14:39:21.482Z,12.40
2022-11-11T14:42:44.213Z,12.40
2022-11-11T14:46:07.049Z,12.40
2022-11-11T14:49:44.993Z,12.30
2022-11-11T14:53:08.973Z,12.30
2022-11-11T14:56:32.680Z,12.10
2022-11-11T14:59:55.609Z,12.00
2022-11-11T15:03:21.755Z,11.80
2022-11-11T15:06:44.429Z,11.60
2022-11-11T15:10:14.392Z,11.40
2022-11-11T15:13:54.393Z,11.20
2022-11-11T15:17:20.798Z,11.10
2022-11-11T15:20:48.648Z,11.00
2022-11-11T15:24:17.425Z,10.80
2022-11-11T15:27:43.433Z,10.70
2022-11-11T15:31:10.982Z,10.60
2022-11-11T15:34:37.029Z,10.40
2022-11-11T15:37:59.714Z,10.20
2022-11-11T15:41:22.716Z,10.00
2022-11-11T15:44:44.574Z,9.80
2022-11-11T15:48:18.172Z,9.50
2022-11-11T15:51:40.106Z,9.40
2022-11-11T15:55:03.007Z,9.30
2022-11-11T15:58:26.410Z,9.20
2022-11-11T16:01:48.670Z,9.10
2022-11-11T16:05:16.364Z,8.90
2022-11-11T16:08:41.366Z,8.80
2022-11-11T16:12:03.208Z,8.70
2022-11-11T16:15:26.860Z,8.60
2022-11-11T16:18:51.015Z,8.60
2022-11-11T16:22:16.335Z,8.50
2022-11-11T16:25:38.021Z,8.50
2022-11-11T16:28:59.851Z,8.50
2022-11-11T16:32:34.995Z,8.40
2022-11-11T16:36:06.552Z,8.40
2022-11-11T16:39:29.897Z,8.40
2022-11-11T16:42:51.477Z,8.40
2022-11-11T16:46:13.955Z,8.40
2022-11-11T16:49:38.227Z,8.30
2022-11-11T16:53:00.976Z,8.30
2022-11-11T16:56:25.729Z,8.10
2022-11-11T16:59:49.211Z,8.10
2022-11-11T17:03:12.133Z,8.00
2022-11-11T17:06:50.453Z,8.00
2022-11-11T17:10:16.155Z,8.00
2022-11-11T17:13:42.508Z,7.80
2022-11-11T17:17:07.037Z,7.70
2022-11-11T17:20:28.635Z,7.60
2022-11-11T17:23:50.237Z,7.50
2022-11-11T17:27:11.898Z,7.50
2022-11-11T17:30:35.097Z,7.40
2022-11-11T17:33:56.737Z,7.40
2022-11-11T17:37:18.329Z,7.30
2022-11-11T17:40:43.934Z,7.30
2022-11-11T17:44:05.944Z,7.20
2022-11-11T17:47:28.903Z,7.20
2022-11-11T17:50:50.631Z,7.20
2022-11-11T17:54:12.258Z,7.20
2022-11-11T17:57:33.844Z,7.20
2022-11-11T18:00:55.519Z,7.10
2022-11-11T18:04:18.487Z,7.10
2022-11-11T18:07:44.877Z,7.00
2022-11-11T18:11:07.485Z,6.90
2022-11-11T18:14:29.079Z,6.90
2022-11-11T18:17:50.746Z,6.90
2022-11-11T18:21:13.785Z,6.80
2022-11-11T18:24:35.386Z,6.80
2022-11-11T18:27:57.027Z,6.80
2022-11-11T18:31:18.622Z,6.70
2022-11-11T18:34:40.254Z,6.70
2022-11-11T18:38:03.224Z,6.60
2022-11-11T18:41:24.914Z,6.60
2022-11-11T18:44:46.510Z,6.60
2022-11-11T18:48:08.100Z,6.60
2022-11-11T18:51:30.394Z,6.60
2022-11-11T18:54:53.365Z,6.50
2022-11-11T18:58:14.960Z,6.50
2022-11-11T19:01:37.699Z,6.50
2022-11-11T19:04:59.340Z,6.50
2022-11-11T19:08:21.021Z,6.40
2022-11-11T19:11:44.561Z,6.40
2022-11-11T19:15:06.531Z,6.40
2022-11-11T19:18:28.390Z,6.30
2022-11-11T19:21:50.058Z,6.20
2022-11-11T19:25:11.670Z,6.20
2022-11-11T19:28:35.468Z,6.30
2022-11-11T19:31:57.126Z,6.20
2022-11-11T19:35:18.749Z,6.20
2022-11-11T19:38:40.431Z,6.20
2022-11-11T19:42:02.105Z,6.20
2022-11-11T19:45:25.237Z,6.30
2022-11-11T19:48:47.116Z,6.30
2022-11-11T19:52:08.732Z,6.20
2022-11-11T19:55:30.394Z,6.20
2022-11-11T19:58:51.987Z,6.10
2022-11-11T20:02:15.013Z,6.10
2022-11-11T20:05:36.965Z,6.10
2022-11-11T20:09:00.639Z,6.10
2022-11-11T20:12:22.548Z,6.10
2022-11-11T20:15:44.237Z,6.10
2022-11-11T20:19:07.222Z,6.10
2022-11-11T20:22:30.295Z,6.00
2022-11-11T20:25:52.076Z,5.90
2022-11-11T20:29:14.677Z,5.90
2022-11-11T20:32:36.285Z,5.80
2022-11-11T20:36:01.404Z,5.80
2022-11-11T20:39:23.006Z,5.80
2022-11-11T20:42:44.725Z,5.80
2022-11-11T20:46:07.626Z,5.80
2022-11-11T20:49:29.275Z,5.90
2022-11-11T20:52:52.337Z,5.90
2022-11-11T20:56:18.209Z,5.90
2022-11-11T20:59:42.446Z,6.00
2022-11-11T21:03:04.426Z,6.00
2022-11-11T21:06:26.668Z,6.00
2022-11-11T21:09:50.092Z,6.00
2022-11-11T21:13:11.733Z,6.00
2022-11-11T21:16:33.652Z,6.10
2022-11-11T21:19:55.475Z,6.10
2022-11-11T21:23:17.104Z,6.10
2022-11-11T21:26:40.110Z,6.10
2022-11-11T21:30:01.751Z,6.00
2022-11-11T21:33:23.611Z,5.90
2022-11-11T21:36:45.524Z,5.80
2022-11-11T21:40:08.766Z,5.70
2022-11-11T21:43:31.769Z,5.70
2022-11-11T21:46:53.397Z,5.70
2022-11-11T21:50:15.115Z,5.60
2022-11-11T21:53:37.651Z,5.60
2022-11-11T21:56:59.289Z,5.60
2022-11-11T22:00:22.347Z,5.70
2022-11-11T22:03:44.029Z,5.80
2022-11-11T22:07:05.700Z,5.80
2022-11-11T22:10:27.317Z,5.80
2022-11-11T22:13:49.286Z,5.80
2022-11-11T22:17:12.280Z,5.90
2022-11-11T22:20:33.913Z,6.00
2022-11-11T22:23:56.147Z,6.10
2022-11-11T22:27:17.746Z,6.10
2022-11-11T22:30:39.332Z,6.00
2022-11-11T22:34:03.330Z,6.00
2022-11-11T22:37:24.914Z,5.90
2022-11-11T22:40:49.339Z,5.90
2022-11-11T22:44:11.986Z,5.80
2022-11-11T22:47:33.567Z,5.80
2022-11-11T22:51:04.720Z,5.70
2022-11-11T22:54:26.321Z,5.70
2022-11-11T22:57:47.901Z,5.70
2022-11-11T23:01:10.661Z,5.70
2022-11-11T23:04:32.270Z,5.50
2022-11-11T23:07:55.240Z,5.30
2022-11-11T23:11:17.675Z,5.20
2022-11-11T23:14:44.397Z,5.10
2022-11-11T23:18:07.056Z,5.00
2022-11-11T23:21:29.421Z,4.90
2022-11-11T23:24:52.587Z,4.80
2022-11-11T23:28:16.877Z,4.70
2022-11-11T23:31:41.816Z,4.60
2022-11-11T23:35:06.371Z,4.60
2022-11-11T23:38:31.908Z,4.50
2022-11-11T23:41:54.848Z,4.40
2022-11-11T23:45:16.765Z,4.40
2022-11-11T23:48:38.423Z,4.40
2022-11-11T23:51:59.997Z,4.40
2022-11-11T23:55:21.580Z,4.40
2022-11-11T23:58:49.523Z,4.30
